sensor_id;sensor_type;location;lat;lon;timestamp;temperature;humidity
59234;DHT22;60776;51.702;7.462;2023-08-21T00:01:45;21.10;99.90
59234;DHT22;60776;51.702;7.462;2023-08-21T00:04:11;21.10;99.90
59234;DHT22;60776;51.702;7.462;2023-08-21T00:06:39;21.10;99.90
59234;DHT22;60776;51.702;7.462;2023-08-21T00:09:04;21.00;99.90
59234;DHT22;60776;51.702;7.462;2023-08-21T00:11:30;21.00;99.90
59234;DHT22;60776;51.702;7.462;2023-08-21T00:13:56;20.90;99.90
59234;DHT22;60776;51.702;7.462;2023-08-21T00:16:24;20.90;99.90
59234;DHT22;60776;51.702;7.462;2023-08-21T00:18:52;20.90;99.90
59234;DHT22;60776;51.702;7.462;2023-08-21T00:21:25;21.00;99.90
59234;DHT22;60776;51.702;7.462;2023-08-21T00:23:53;21.10;99.90
59234;DHT22;60776;51.702;7.462;2023-08-21T00:26:21;21.20;99.90
59234;DHT22;60776;51.702;7.462;2023-08-21T00:28:52;21.20;99.90
59234;DHT22;60776;51.702;7.462;2023-08-21T00:31:20;21.10;99.90
59234;DHT22;60776;51.702;7.462;2023-08-21T00:33:46;21.10;99.90
59234;DHT22;60776;51.702;7.462;2023-08-21T00:36:14;21.10;99.90
59234;DHT22;60776;51.702;7.462;2023-08-21T00:38:42;21.10;99.90
59234;DHT22;60776;51.702;7.462;2023-08-21T00:41:08;21.20;99.90
59234;DHT22;60776;51.702;7.462;2023-08-21T00:43:34;21.20;99.90
59234;DHT22;60776;51.702;7.462;2023-08-21T00:46:05;21.20;99.90
59234;DHT22;60776;51.702;7.462;2023-08-21T00:48:31;21.20;99.90
59234;DHT22;60776;51.702;7.462;2023-08-21T00:50:57;21.30;99.90
59234;DHT22;60776;51.702;7.462;2023-08-21T00:53:24;21.20;99.90
59234;DHT22;60776;51.702;7.462;2023-08-21T00:55:55;21.30;99.90
59234;DHT22;60776;51.702;7.462;2023-08-21T00:58:23;21.30;99.90
59234;DHT22;60776;51.702;7.462;2023-08-21T01:00:52;21.30;99.90
59234;DHT22;60776;51.702;7.462;2023-08-21T01:03:20;21.30;99.90
59234;DHT22;60776;51.702;7.462;2023-08-21T01:05:46;21.30;99.90
59234;DHT22;60776;51.702;7.462;2023-08-21T01:08:21;21.30;99.90
59234;DHT22;60776;51.702;7.462;2023-08-21T01:10:51;21.30;99.90
59234;DHT22;60776;51.702;7.462;2023-08-21T01:13:34;21.40;99.90
59234;DHT22;60776;51.702;7.462;2023-08-21T01:16:03;21.40;99.90
59234;DHT22;60776;51.702;7.462;2023-08-21T01:18:30;21.50;99.90
59234;DHT22;60776;51.702;7.462;2023-08-21T01:20:57;21.50;99.90
59234;DHT22;60776;51.702;7.462;2023-08-21T01:23:34;21.40;99.90
59234;DHT22;60776;51.702;7.462;2023-08-21T01:26:01;21.40;99.90
59234;DHT22;60776;51.702;7.462;2023-08-21T01:28:30;21.40;99.90
59234;DHT22;60776;51.702;7.462;2023-08-21T01:31:10;21.50;99.90
59234;DHT22;60776;51.702;7.462;2023-08-21T01:33:44;21.50;99.90
59234;DHT22;60776;51.702;7.462;2023-08-21T01:36:11;21.40;99.90
59234;DHT22;60776;51.702;7.462;2023-08-21T01:38:37;21.50;99.90
59234;DHT22;60776;51.702;7.462;2023-08-21T01:41:02;21.40;99.90
59234;DHT22;60776;51.702;7.462;2023-08-21T01:43:30;21.30;99.90
59234;DHT22;60776;51.702;7.462;2023-08-21T01:45:56;21.20;99.90
59234;DHT22;60776;51.702;7.462;2023-08-21T01:48:22;21.10;99.90
59234;DHT22;60776;51.702;7.462;2023-08-21T01:50:49;21.00;99.90
59234;DHT22;60776;51.702;7.462;2023-08-21T01:53:15;20.90;99.90
59234;DHT22;60776;51.702;7.462;2023-08-21T01:55:43;20.90;99.90
59234;DHT22;60776;51.702;7.462;2023-08-21T01:58:08;20.80;99.90
59234;DHT22;60776;51.702;7.462;2023-08-21T02:00:46;20.80;99.90
59234;DHT22;60776;51.702;7.462;2023-08-21T02:03:20;20.80;99.90
59234;DHT22;60776;51.702;7.462;2023-08-21T02:05:45;20.80;99.90
59234;DHT22;60776;51.702;7.462;2023-08-21T02:08:14;20.70;99.90
59234;DHT22;60776;51.702;7.462;2023-08-21T02:10:53;20.70;99.90
59234;DHT22;60776;51.702;7.462;2023-08-21T02:13:19;20.60;99.90
59234;DHT22;60776;51.702;7.462;2023-08-21T02:15:56;20.70;99.90
59234;DHT22;60776;51.702;7.462;2023-08-21T02:18:24;20.60;99.90
59234;DHT22;60776;51.702;7.462;2023-08-21T02:20:57;20.70;99.90
59234;DHT22;60776;51.702;7.462;2023-08-21T02:23:25;20.60;99.90
59234;DHT22;60776;51.702;7.462;2023-08-21T02:26:00;20.60;99.90
59234;DHT22;60776;51.702;7.462;2023-08-21T02:28:25;20.60;99.90
59234;DHT22;60776;51.702;7.462;2023-08-21T02:31:01;20.60;99.90
59234;DHT22;60776;51.702;7.462;2023-08-21T02:33:33;20.60;99.90
59234;DHT22;60776;51.702;7.462;2023-08-21T02:35:58;20.60;99.90
59234;DHT22;60776;51.702;7.462;2023-08-21T02:38:24;20.60;99.90
59234;DHT22;60776;51.702;7.462;2023-08-21T02:40:50;20.50;99.90
59234;DHT22;60776;51.702;7.462;2023-08-21T02:43:15;20.50;99.90
59234;DHT22;60776;51.702;7.462;2023-08-21T02:45:41;20.50;99.90
59234;DHT22;60776;51.702;7.462;2023-08-21T02:48:08;20.50;99.90
59234;DHT22;60776;51.702;7.462;2023-08-21T02:50:33;20.60;99.90
59234;DHT22;60776;51.702;7.462;2023-08-21T02:53:01;20.60;99.90
59234;DHT22;60776;51.702;7.462;2023-08-21T02:55:29;20.60;99.90
59234;DHT22;60776;51.702;7.462;2023-08-21T02:57:55;20.60;99.90
59234;DHT22;60776;51.702;7.462;2023-08-21T03:00:20;20.70;99.90
59234;DHT22;60776;51.702;7.462;2023-08-21T03:02:51;20.60;99.90
59234;DHT22;60776;51.702;7.462;2023-08-21T03:05:26;20.60;99.90
59234;DHT22;60776;51.702;7.462;2023-08-21T03:07:51;20.50;99.90
59234;DHT22;60776;51.702;7.462;2023-08-21T03:10:19;20.60;99.90
59234;DHT22;60776;51.702;7.462;2023-08-21T03:12:45;20.50;99.90
59234;DHT22;60776;51.702;7.462;2023-08-21T03:15:13;20.40;99.90
59234;DHT22;60776;51.702;7.462;2023-08-21T03:17:41;20.40;99.90
59234;DHT22;60776;51.702;7.462;2023-08-21T03:20:07;20.40;99.90
59234;DHT22;60776;51.702;7.462;2023-08-21T03:22:33;20.30;99.90
59234;DHT22;60776;51.702;7.462;2023-08-21T03:24:59;20.30;99.90
59234;DHT22;60776;51.702;7.462;2023-08-21T03:27:24;20.30;99.90
59234;DHT22;60776;51.702;7.462;2023-08-21T03:29:50;20.30;99.90
59234;DHT22;60776;51.702;7.462;2023-08-21T03:32:16;20.20;99.90
59234;DHT22;60776;51.702;7.462;2023-08-21T03:34:43;20.30;99.90
59234;DHT22;60776;51.702;7.462;2023-08-21T03:37:11;20.20;99.90
59234;DHT22;60776;51.702;7.462;2023-08-21T03:39:44;20.10;99.90
59234;DHT22;60776;51.702;7.462;2023-08-21T03:42:17;20.00;99.90
59234;DHT22;60776;51.702;7.462;2023-08-21T03:44:45;20.00;99.90
59234;DHT22;60776;51.702;7.462;2023-08-21T03:47:16;20.00;99.90
59234;DHT22;60776;51.702;7.462;2023-08-21T03:49:49;20.00;99.90
59234;DHT22;60776;51.702;7.462;2023-08-21T03:52:20;20.00;99.90
59234;DHT22;60776;51.702;7.462;2023-08-21T03:54:50;20.00;99.90
59234;DHT22;60776;51.702;7.462;2023-08-21T03:57:18;20.20;99.90
59234;DHT22;60776;51.702;7.462;2023-08-21T03:59:55;20.20;99.90
59234;DHT22;60776;51.702;7.462;2023-08-21T04:02:23;20.30;99.90
59234;DHT22;60776;51.702;7.462;2023-08-21T04:04:58;20.30;99.90
59234;DHT22;60776;51.702;7.462;2023-08-21T04:07:26;20.30;99.90
59234;DHT22;60776;51.702;7.462;2023-08-21T04:09:51;20.40;99.90
59234;DHT22;60776;51.702;7.462;2023-08-21T04:12:17;20.40;99.90
59234;DHT22;60776;51.702;7.462;2023-08-21T04:14:50;20.40;99.90
59234;DHT22;60776;51.702;7.462;2023-08-21T04:17:25;20.40;99.90
59234;DHT22;60776;51.702;7.462;2023-08-21T04:19:51;20.50;99.90
59234;DHT22;60776;51.702;7.462;2023-08-21T04:22:19;20.40;99.90
59234;DHT22;60776;51.702;7.462;2023-08-21T04:24:45;20.40;99.90
59234;DHT22;60776;51.702;7.462;2023-08-21T04:27:11;20.30;99.90
59234;DHT22;60776;51.702;7.462;2023-08-21T04:29:37;20.30;99.90
59234;DHT22;60776;51.702;7.462;2023-08-21T04:32:03;20.20;99.90
59234;DHT22;60776;51.702;7.462;2023-08-21T04:34:29;20.20;99.90
59234;DHT22;60776;51.702;7.462;2023-08-21T04:37:00;20.10;99.90
59234;DHT22;60776;51.702;7.462;2023-08-21T04:39:30;20.00;99.90
59234;DHT22;60776;51.702;7.462;2023-08-21T04:41:56;19.90;99.90
59234;DHT22;60776;51.702;7.462;2023-08-21T04:44:33;19.90;99.90
59234;DHT22;60776;51.702;7.462;2023-08-21T04:47:22;19.90;99.90
59234;DHT22;60776;51.702;7.462;2023-08-21T04:49:49;19.90;99.90
59234;DHT22;60776;51.702;7.462;2023-08-21T04:52:21;20.00;99.90
59234;DHT22;60776;51.702;7.462;2023-08-21T04:54:48;20.10;99.90
59234;DHT22;60776;51.702;7.462;2023-08-21T04:57:26;20.20;99.90
59234;DHT22;60776;51.702;7.462;2023-08-21T05:00:00;20.40;99.90
59234;DHT22;60776;51.702;7.462;2023-08-21T05:02:28;20.50;99.90
59234;DHT22;60776;51.702;7.462;2023-08-21T05:05:02;20.60;99.90
59234;DHT22;60776;51.702;7.462;2023-08-21T05:07:27;20.80;99.90
59234;DHT22;60776;51.702;7.462;2023-08-21T05:09:53;20.80;99.90
59234;DHT22;60776;51.702;7.462;2023-08-21T05:12:19;20.80;99.90
59234;DHT22;60776;51.702;7.462;2023-08-21T05:14:44;20.80;99.90
59234;DHT22;60776;51.702;7.462;2023-08-21T05:17:10;20.90;99.90
59234;DHT22;60776;51.702;7.462;2023-08-21T05:19:35;21.00;99.90
59234;DHT22;60776;51.702;7.462;2023-08-21T05:22:01;21.20;99.90
59234;DHT22;60776;51.702;7.462;2023-08-21T05:24:27;21.30;99.90
59234;DHT22;60776;51.702;7.462;2023-08-21T05:26:54;21.30;99.90
59234;DHT22;60776;51.702;7.462;2023-08-21T05:29:20;21.40;99.90
59234;DHT22;60776;51.702;7.462;2023-08-21T05:31:46;21.60;99.90
59234;DHT22;60776;51.702;7.462;2023-08-21T05:34:14;21.80;99.90
59234;DHT22;60776;51.702;7.462;2023-08-21T05:36:51;21.90;99.90
59234;DHT22;60776;51.702;7.462;2023-08-21T05:39:20;22.10;99.90
59234;DHT22;60776;51.702;7.462;2023-08-21T05:41:53;22.80;99.90
59234;DHT22;60776;51.702;7.462;2023-08-21T05:44:21;24.10;99.90
59234;DHT22;60776;51.702;7.462;2023-08-21T05:46:54;25.30;99.90
59234;DHT22;60776;51.702;7.462;2023-08-21T05:49:22;25.50;99.90
59234;DHT22;60776;51.702;7.462;2023-08-21T05:51:53;25.20;99.90
59234;DHT22;60776;51.702;7.462;2023-08-21T05:54:19;24.80;99.90
59234;DHT22;60776;51.702;7.462;2023-08-21T05:56:44;24.50;99.90
59234;DHT22;60776;51.702;7.462;2023-08-21T05:59:10;24.60;99.90
59234;DHT22;60776;51.702;7.462;2023-08-21T06:01:39;25.00;99.90
59234;DHT22;60776;51.702;7.462;2023-08-21T06:04:05;25.30;99.90
59234;DHT22;60776;51.702;7.462;2023-08-21T06:06:38;25.80;99.90
59234;DHT22;60776;51.702;7.462;2023-08-21T06:09:06;26.70;99.90
59234;DHT22;60776;51.702;7.462;2023-08-21T06:11:40;26.90;99.90
59234;DHT22;60776;51.702;7.462;2023-08-21T06:14:08;27.50;99.90
59234;DHT22;60776;51.702;7.462;2023-08-21T06:16:43;28.50;99.90
59234;DHT22;60776;51.702;7.462;2023-08-21T06:19:10;29.50;99.10
59234;DHT22;60776;51.702;7.462;2023-08-21T06:21:36;30.20;96.70
59234;DHT22;60776;51.702;7.462;2023-08-21T06:24:01;30.30;90.90
59234;DHT22;60776;51.702;7.462;2023-08-21T06:26:27;29.70;89.70
59234;DHT22;60776;51.702;7.462;2023-08-21T06:28:53;29.70;90.70
59234;DHT22;60776;51.702;7.462;2023-08-21T06:31:18;30.20;90.10
59234;DHT22;60776;51.702;7.462;2023-08-21T06:33:44;31.10;90.00
59234;DHT22;60776;51.702;7.462;2023-08-21T06:36:10;32.00;83.10
59234;DHT22;60776;51.702;7.462;2023-08-21T06:38:35;32.20;76.00
59234;DHT22;60776;51.702;7.462;2023-08-21T06:41:01;32.60;74.30
59234;DHT22;60776;51.702;7.462;2023-08-21T06:43:26;32.90;70.00
59234;DHT22;60776;51.702;7.462;2023-08-21T06:45:52;33.20;68.20
59234;DHT22;60776;51.702;7.462;2023-08-21T06:48:18;33.50;66.80
59234;DHT22;60776;51.702;7.462;2023-08-21T06:50:44;34.00;64.80
59234;DHT22;60776;51.702;7.462;2023-08-21T06:53:09;34.40;62.40
59234;DHT22;60776;51.702;7.462;2023-08-21T06:55:35;34.80;61.40
59234;DHT22;60776;51.702;7.462;2023-08-21T06:58:00;35.30;59.60
59234;DHT22;60776;51.702;7.462;2023-08-21T07:00:26;35.70;58.00
59234;DHT22;60776;51.702;7.462;2023-08-21T07:02:52;36.10;57.90
59234;DHT22;60776;51.702;7.462;2023-08-21T07:05:17;36.30;55.80
59234;DHT22;60776;51.702;7.462;2023-08-21T07:07:43;36.80;55.70
59234;DHT22;60776;51.702;7.462;2023-08-21T07:10:09;37.30;54.40
59234;DHT22;60776;51.702;7.462;2023-08-21T07:12:34;38.00;53.50
59234;DHT22;60776;51.702;7.462;2023-08-21T07:15:00;38.60;52.20
59234;DHT22;60776;51.702;7.462;2023-08-21T07:17:25;39.00;50.60
59234;DHT22;60776;51.702;7.462;2023-08-21T07:19:51;38.70;49.40
59234;DHT22;60776;51.702;7.462;2023-08-21T07:22:19;37.70;49.20
59234;DHT22;60776;51.702;7.462;2023-08-21T07:24:45;36.40;49.70
59234;DHT22;60776;51.702;7.462;2023-08-21T07:27:11;35.20;51.50
59234;DHT22;60776;51.702;7.462;2023-08-21T07:29:37;34.70;53.30
59234;DHT22;60776;51.702;7.462;2023-08-21T07:32:02;35.50;53.80
59234;DHT22;60776;51.702;7.462;2023-08-21T07:34:28;36.60;52.50
59234;DHT22;60776;51.702;7.462;2023-08-21T07:36:53;37.40;50.70
59234;DHT22;60776;51.702;7.462;2023-08-21T07:39:19;37.70;48.80
59234;DHT22;60776;51.702;7.462;2023-08-21T07:41:45;37.80;48.20
59234;DHT22;60776;51.702;7.462;2023-08-21T07:44:10;36.30;46.90
59234;DHT22;60776;51.702;7.462;2023-08-21T07:46:36;35.20;48.90
59234;DHT22;60776;51.702;7.462;2023-08-21T07:49:01;34.10;50.40
59234;DHT22;60776;51.702;7.462;2023-08-21T07:51:27;33.70;52.30
59234;DHT22;60776;51.702;7.462;2023-08-21T07:53:53;34.40;53.00
59234;DHT22;60776;51.702;7.462;2023-08-21T07:56:18;35.70;52.00
59234;DHT22;60776;51.702;7.462;2023-08-21T07:58:44;36.60;50.20
59234;DHT22;60776;51.702;7.462;2023-08-21T08:01:09;37.10;48.20
59234;DHT22;60776;51.702;7.462;2023-08-21T08:03:35;37.60;48.40
59234;DHT22;60776;51.702;7.462;2023-08-21T08:06:01;38.40;47.40
59234;DHT22;60776;51.702;7.462;2023-08-21T08:08:26;38.70;45.50
59234;DHT22;60776;51.702;7.462;2023-08-21T08:10:52;38.90;45.80
59234;DHT22;60776;51.702;7.462;2023-08-21T08:13:18;39.50;45.30
59234;DHT22;60776;51.702;7.462;2023-08-21T08:15:43;39.60;43.20
59234;DHT22;60776;51.702;7.462;2023-08-21T08:18:13;39.10;42.10
59234;DHT22;60776;51.702;7.462;2023-08-21T08:20:39;37.50;43.40
59234;DHT22;60776;51.702;7.462;2023-08-21T08:23:05;37.30;45.70
59234;DHT22;60776;51.702;7.462;2023-08-21T08:25:31;38.00;44.40
59234;DHT22;60776;51.702;7.462;2023-08-21T08:27:56;38.60;44.20
59234;DHT22;60776;51.702;7.462;2023-08-21T08:30:22;38.90;43.00
59234;DHT22;60776;51.702;7.462;2023-08-21T08:32:49;39.00;43.30
59234;DHT22;60776;51.702;7.462;2023-08-21T08:35:15;39.50;43.10
59234;DHT22;60776;51.702;7.462;2023-08-21T08:37:41;39.80;42.00
59234;DHT22;60776;51.702;7.462;2023-08-21T08:40:08;39.40;42.50
59234;DHT22;60776;51.702;7.462;2023-08-21T08:42:35;39.60;42.60
59234;DHT22;60776;51.702;7.462;2023-08-21T08:45:02;40.40;43.10
59234;DHT22;60776;51.702;7.462;2023-08-21T08:47:33;41.00;41.60
59234;DHT22;60776;51.702;7.462;2023-08-21T08:50:03;41.10;40.40
59234;DHT22;60776;51.702;7.462;2023-08-21T08:52:31;40.60;39.70
59234;DHT22;60776;51.702;7.462;2023-08-21T08:54:59;40.20;40.80
59234;DHT22;60776;51.702;7.462;2023-08-21T08:57:25;40.40;40.90
59234;DHT22;60776;51.702;7.462;2023-08-21T08:59:50;40.60;40.50
59234;DHT22;60776;51.702;7.462;2023-08-21T09:02:16;40.50;40.70
59234;DHT22;60776;51.702;7.462;2023-08-21T09:04:42;40.90;39.80
59234;DHT22;60776;51.702;7.462;2023-08-21T09:07:11;40.90;39.20
59234;DHT22;60776;51.702;7.462;2023-08-21T09:09:44;40.80;39.40
59234;DHT22;60776;51.702;7.462;2023-08-21T09:12:12;40.60;39.00
59234;DHT22;60776;51.702;7.462;2023-08-21T09:14:43;39.80;39.40
59234;DHT22;60776;51.702;7.462;2023-08-21T09:17:09;39.90;40.20
59234;DHT22;60776;51.702;7.462;2023-08-21T09:19:34;41.00;40.30
59234;DHT22;60776;51.702;7.462;2023-08-21T09:22:13;41.80;39.00
59234;DHT22;60776;51.702;7.462;2023-08-21T09:24:40;42.60;37.50
59234;DHT22;60776;51.702;7.462;2023-08-21T09:27:16;42.90;37.70
59234;DHT22;60776;51.702;7.462;2023-08-21T09:29:42;43.40;36.40
59234;DHT22;60776;51.702;7.462;2023-08-21T09:32:08;43.00;36.10
59234;DHT22;60776;51.702;7.462;2023-08-21T09:34:35;43.20;36.20
59234;DHT22;60776;51.702;7.462;2023-08-21T09:37:05;43.20;35.00
59234;DHT22;60776;51.702;7.462;2023-08-21T09:39:37;42.70;35.30
59234;DHT22;60776;51.702;7.462;2023-08-21T09:42:07;41.60;36.10
59234;DHT22;60776;51.702;7.462;2023-08-21T09:44:38;41.20;37.00
59234;DHT22;60776;51.702;7.462;2023-08-21T09:47:08;41.60;37.10
59234;DHT22;60776;51.702;7.462;2023-08-21T09:49:35;42.10;37.60
59234;DHT22;60776;51.702;7.462;2023-08-21T09:52:05;42.70;35.90
59234;DHT22;60776;51.702;7.462;2023-08-21T09:54:33;42.30;35.70
59234;DHT22;60776;51.702;7.462;2023-08-21T09:57:01;41.80;35.70
59234;DHT22;60776;51.702;7.462;2023-08-21T09:59:28;41.40;36.90
59234;DHT22;60776;51.702;7.462;2023-08-21T10:01:55;41.20;37.30
59234;DHT22;60776;51.702;7.462;2023-08-21T10:04:22;41.30;37.50
59234;DHT22;60776;51.702;7.462;2023-08-21T10:06:50;41.50;37.40
59234;DHT22;60776;51.702;7.462;2023-08-21T10:09:17;42.30;37.60
59234;DHT22;60776;51.702;7.462;2023-08-21T10:11:43;43.20;35.70
59234;DHT22;60776;51.702;7.462;2023-08-21T10:14:10;43.20;35.20
59234;DHT22;60776;51.702;7.462;2023-08-21T10:16:36;44.00;35.50
59234;DHT22;60776;51.702;7.462;2023-08-21T10:19:03;44.90;34.40
59234;DHT22;60776;51.702;7.462;2023-08-21T10:21:35;45.00;33.70
59234;DHT22;60776;51.702;7.462;2023-08-21T10:24:02;45.10;33.50
59234;DHT22;60776;51.702;7.462;2023-08-21T10:26:27;44.70;33.50
59234;DHT22;60776;51.702;7.462;2023-08-21T10:29:00;43.70;32.90
59234;DHT22;60776;51.702;7.462;2023-08-21T10:31:36;42.40;34.20
59234;DHT22;60776;51.702;7.462;2023-08-21T10:34:07;42.20;35.10
59234;DHT22;60776;51.702;7.462;2023-08-21T10:39:20;43.00;35.40
59234;DHT22;60776;51.702;7.462;2023-08-21T10:47:31;44.60;33.60
59234;DHT22;60776;51.702;7.462;2023-08-21T10:50:08;45.30;33.50
59234;DHT22;60776;51.702;7.462;2023-08-21T10:52:38;46.50;32.80
59234;DHT22;60776;51.702;7.462;2023-08-21T10:55:09;47.10;32.10
59234;DHT22;60776;51.702;7.462;2023-08-21T10:57:38;47.00;32.00
59234;DHT22;60776;51.702;7.462;2023-08-21T11:00:09;47.10;31.10
59234;DHT22;60776;51.702;7.462;2023-08-21T11:02:38;47.10;30.60
59234;DHT22;60776;51.702;7.462;2023-08-21T11:05:04;46.80;31.70
59234;DHT22;60776;51.702;7.462;2023-08-21T11:07:36;46.90;31.40
59234;DHT22;60776;51.702;7.462;2023-08-21T11:10:01;47.60;30.50
59234;DHT22;60776;51.702;7.462;2023-08-21T11:12:28;47.50;30.00
59234;DHT22;60776;51.702;7.462;2023-08-21T11:14:54;47.50;30.40
59234;DHT22;60776;51.702;7.462;2023-08-21T11:17:20;47.30;30.20
59234;DHT22;60776;51.702;7.462;2023-08-21T11:19:45;47.00;31.20
59234;DHT22;60776;51.702;7.462;2023-08-21T11:22:13;47.80;31.40
59234;DHT22;60776;51.702;7.462;2023-08-21T11:24:45;48.60;30.80
59234;DHT22;60776;51.702;7.462;2023-08-21T11:27:15;48.80;30.00
59234;DHT22;60776;51.702;7.462;2023-08-21T11:29:43;48.90;29.40
59234;DHT22;60776;51.702;7.462;2023-08-21T11:32:13;48.20;30.00
59234;DHT22;60776;51.702;7.462;2023-08-21T11:34:40;48.00;29.70
59234;DHT22;60776;51.702;7.462;2023-08-21T11:37:06;47.30;30.10
59234;DHT22;60776;51.702;7.462;2023-08-21T11:39:42;47.00;30.50
59234;DHT22;60776;51.702;7.462;2023-08-21T11:42:10;47.60;30.20
59234;DHT22;60776;51.702;7.462;2023-08-21T11:44:45;47.70;30.80
59234;DHT22;60776;51.702;7.462;2023-08-21T11:47:11;47.60;30.00
59234;DHT22;60776;51.702;7.462;2023-08-21T11:49:42;48.10;30.30
59234;DHT22;60776;51.702;7.462;2023-08-21T11:52:09;48.70;30.00
59234;DHT22;60776;51.702;7.462;2023-08-21T11:54:35;49.20;30.00
59234;DHT22;60776;51.702;7.462;2023-08-21T11:57:09;47.90;29.50
59234;DHT22;60776;51.702;7.462;2023-08-21T11:59:37;47.20;30.40
59234;DHT22;60776;51.702;7.462;2023-08-21T12:02:14;46.70;30.60
59234;DHT22;60776;51.702;7.462;2023-08-21T12:04:41;45.80;31.00
59234;DHT22;60776;51.702;7.462;2023-08-21T12:07:07;45.30;32.10
59234;DHT22;60776;51.702;7.462;2023-08-21T12:09:32;44.60;32.00
59234;DHT22;60776;51.702;7.462;2023-08-21T12:11:58;43.80;32.90
59234;DHT22;60776;51.702;7.462;2023-08-21T12:14:24;43.20;33.30
59234;DHT22;60776;51.702;7.462;2023-08-21T12:16:50;42.50;34.30
59234;DHT22;60776;51.702;7.462;2023-08-21T12:19:16;42.30;35.00
59234;DHT22;60776;51.702;7.462;2023-08-21T12:21:41;41.80;34.90
59234;DHT22;60776;51.702;7.462;2023-08-21T12:24:07;41.40;35.90
59234;DHT22;60776;51.702;7.462;2023-08-21T12:26:33;41.90;36.30
59234;DHT22;60776;51.702;7.462;2023-08-21T12:29:00;42.30;35.70
59234;DHT22;60776;51.702;7.462;2023-08-21T12:31:26;42.50;34.90
59234;DHT22;60776;51.702;7.462;2023-08-21T12:33:52;42.60;34.90
59234;DHT22;60776;51.702;7.462;2023-08-21T12:36:18;42.50;35.00
59234;DHT22;60776;51.702;7.462;2023-08-21T12:38:43;43.10;35.10
59234;DHT22;60776;51.702;7.462;2023-08-21T12:41:09;43.20;33.60
59234;DHT22;60776;51.702;7.462;2023-08-21T12:43:35;43.50;33.90
59234;DHT22;60776;51.702;7.462;2023-08-21T12:46:00;43.60;33.40
59234;DHT22;60776;51.702;7.462;2023-08-21T12:48:26;43.80;33.40
59234;DHT22;60776;51.702;7.462;2023-08-21T12:50:51;44.10;33.30
59234;DHT22;60776;51.702;7.462;2023-08-21T12:53:17;43.60;32.80
59234;DHT22;60776;51.702;7.462;2023-08-21T12:55:43;43.70;33.50
59234;DHT22;60776;51.702;7.462;2023-08-21T12:58:08;43.90;33.40
59234;DHT22;60776;51.702;7.462;2023-08-21T13:00:34;42.60;33.20
59234;DHT22;60776;51.702;7.462;2023-08-21T13:03:00;40.70;34.70
59234;DHT22;60776;51.702;7.462;2023-08-21T13:05:26;40.00;36.60
59234;DHT22;60776;51.702;7.462;2023-08-21T13:07:51;40.20;37.20
59234;DHT22;60776;51.702;7.462;2023-08-21T13:10:18;40.10;37.00
59234;DHT22;60776;51.702;7.462;2023-08-21T13:12:43;39.90;36.90
59234;DHT22;60776;51.702;7.462;2023-08-21T13:15:09;39.70;37.40
59234;DHT22;60776;51.702;7.462;2023-08-21T13:17:36;39.20;37.60
59234;DHT22;60776;51.702;7.462;2023-08-21T13:20:02;38.40;38.20
59234;DHT22;60776;51.702;7.462;2023-08-21T13:22:28;37.70;39.20
59234;DHT22;60776;51.702;7.462;2023-08-21T13:24:53;37.30;39.80
59234;DHT22;60776;51.702;7.462;2023-08-21T13:27:19;37.10;40.00
59234;DHT22;60776;51.702;7.462;2023-08-21T13:29:46;36.90;40.60
59234;DHT22;60776;51.702;7.462;2023-08-21T13:32:12;36.70;41.00
59234;DHT22;60776;51.702;7.462;2023-08-21T13:34:38;36.60;42.50
59234;DHT22;60776;51.702;7.462;2023-08-21T13:37:04;36.60;41.50
59234;DHT22;60776;51.702;7.462;2023-08-21T13:39:33;36.60;41.50
59234;DHT22;60776;51.702;7.462;2023-08-21T13:41:58;36.40;42.20
59234;DHT22;60776;51.702;7.462;2023-08-21T13:44:24;36.30;42.40
59234;DHT22;60776;51.702;7.462;2023-08-21T13:46:49;36.30;42.70
59234;DHT22;60776;51.702;7.462;2023-08-21T13:49:17;36.20;42.60
59234;DHT22;60776;51.702;7.462;2023-08-21T13:51:43;36.00;42.80
59234;DHT22;60776;51.702;7.462;2023-08-21T13:54:08;35.80;43.30
59234;DHT22;60776;51.702;7.462;2023-08-21T13:56:34;35.70;43.90
59234;DHT22;60776;51.702;7.462;2023-08-21T13:59:00;35.60;43.60
59234;DHT22;60776;51.702;7.462;2023-08-21T14:01:26;35.30;43.60
59234;DHT22;60776;51.702;7.462;2023-08-21T14:03:51;35.20;44.10
59234;DHT22;60776;51.702;7.462;2023-08-21T14:06:17;35.00;44.60
59234;DHT22;60776;51.702;7.462;2023-08-21T14:08:43;34.80;44.60
59234;DHT22;60776;51.702;7.462;2023-08-21T14:11:09;34.70;44.70
59234;DHT22;60776;51.702;7.462;2023-08-21T14:13:37;34.50;45.70
59234;DHT22;60776;51.702;7.462;2023-08-21T14:16:03;34.30;45.50
59234;DHT22;60776;51.702;7.462;2023-08-21T14:18:29;34.00;45.70
59234;DHT22;60776;51.702;7.462;2023-08-21T14:20:55;33.90;46.20
59234;DHT22;60776;51.702;7.462;2023-08-21T14:23:20;33.70;46.30
59234;DHT22;60776;51.702;7.462;2023-08-21T14:25:46;33.50;46.80
59234;DHT22;60776;51.702;7.462;2023-08-21T14:28:11;33.30;46.90
59234;DHT22;60776;51.702;7.462;2023-08-21T14:30:39;33.20;47.10
59234;DHT22;60776;51.702;7.462;2023-08-21T14:33:06;33.20;47.70
59234;DHT22;60776;51.702;7.462;2023-08-21T14:35:31;33.10;47.60
59234;DHT22;60776;51.702;7.462;2023-08-21T14:37:57;33.10;48.10
59234;DHT22;60776;51.702;7.462;2023-08-21T14:40:23;33.20;47.70
59234;DHT22;60776;51.702;7.462;2023-08-21T14:42:48;33.30;48.40
59234;DHT22;60776;51.702;7.462;2023-08-21T14:45:14;33.40;47.80
59234;DHT22;60776;51.702;7.462;2023-08-21T14:47:39;33.40;47.90
59234;DHT22;60776;51.702;7.462;2023-08-21T14:50:06;33.60;47.60
59234;DHT22;60776;51.702;7.462;2023-08-21T14:52:31;33.50;48.20
59234;DHT22;60776;51.702;7.462;2023-08-21T14:54:57;33.50;47.70
59234;DHT22;60776;51.702;7.462;2023-08-21T14:57:23;33.40;47.80
59234;DHT22;60776;51.702;7.462;2023-08-21T14:59:48;33.20;47.70
59234;DHT22;60776;51.702;7.462;2023-08-21T15:02:14;33.00;47.70
59234;DHT22;60776;51.702;7.462;2023-08-21T15:04:40;32.90;48.10
59234;DHT22;60776;51.702;7.462;2023-08-21T15:07:05;32.80;48.30
59234;DHT22;60776;51.702;7.462;2023-08-21T15:09:31;32.60;48.50
59234;DHT22;60776;51.702;7.462;2023-08-21T15:12:00;32.50;48.90
59234;DHT22;60776;51.702;7.462;2023-08-21T15:14:25;32.40;49.00
59234;DHT22;60776;51.702;7.462;2023-08-21T15:16:51;32.30;48.80
59234;DHT22;60776;51.702;7.462;2023-08-21T15:19:17;32.20;48.80
59234;DHT22;60776;51.702;7.462;2023-08-21T15:21:42;32.20;49.30
59234;DHT22;60776;51.702;7.462;2023-08-21T15:24:08;32.00;49.50
59234;DHT22;60776;51.702;7.462;2023-08-21T15:26:34;31.90;50.30
59234;DHT22;60776;51.702;7.462;2023-08-21T15:29:00;31.80;50.20
59234;DHT22;60776;51.702;7.462;2023-08-21T15:31:26;31.60;50.10
59234;DHT22;60776;51.702;7.462;2023-08-21T15:33:52;31.50;50.40
59234;DHT22;60776;51.702;7.462;2023-08-21T15:36:17;31.40;50.50
59234;DHT22;60776;51.702;7.462;2023-08-21T15:38:43;31.30;50.30
59234;DHT22;60776;51.702;7.462;2023-08-21T15:41:11;31.20;50.70